createdAt,value
2023-03-14T00:00:28.879Z,98727.09
2023-03-14T00:02:56.651Z,98728.53
2023-03-14T00:05:27.043Z,98740.81
2023-03-14T00:07:54.765Z,98728.97
2023-03-14T00:10:22.726Z,98729.16
2023-03-14T00:12:50.346Z,98724.47
2023-03-14T00:15:18.035Z,98723.84
2023-03-14T00:17:46.258Z,98724.66
2023-03-14T00:20:14.912Z,98718.72
2023-03-14T00:22:44.156Z,98712.59
2023-03-14T00:25:13.211Z,98700.09
2023-03-14T00:27:40.959Z,98709.53
2023-03-14T00:30:10.050Z,98705.63
2023-03-14T00:32:38.206Z,98710.34
2023-03-14T00:35:06.512Z,98710.34
2023-03-14T00:37:34.417Z,98711.16
2023-03-14T00:40:06.711Z,98696.22
2023-03-14T00:42:34.473Z,98686.59
2023-03-14T00:45:02.322Z,98683.94
2023-03-14T00:47:29.997Z,98686.59
2023-03-14T00:49:58.182Z,98696.25
2023-03-14T00:52:25.989Z,98693.34
2023-03-14T00:54:53.844Z,98686.81
2023-03-14T00:57:22.919Z,98695.41
2023-03-14T00:59:50.585Z,98694.38
2023-03-14T01:02:18.513Z,98691.31
2023-03-14T01:04:46.206Z,98703.97
2023-03-14T01:07:13.944Z,98714.22
2023-03-14T01:09:41.648Z,98703.16
2023-03-14T01:12:09.443Z,98710.56
2023-03-14T01:14:38.513Z,98709.91
2023-03-14T01:17:06.298Z,98704.81
2023-03-14T01:19:34.620Z,98696.84
2023-03-14T01:22:02.382Z,98699.50
2023-03-14T01:24:30.172Z,98698.66
2023-03-14T01:26:57.879Z,98694.56
2023-03-14T01:29:25.579Z,98686.78
2023-03-14T01:31:54.690Z,98684.56
2023-03-14T01:34:22.517Z,98682.31
2023-03-14T01:36:50.198Z,98685.16
2023-03-14T01:39:18.005Z,98685.16
2023-03-14T01:41:45.705Z,98683.31
2023-03-14T01:44:14.219Z,98682.69
2023-03-14T01:46:43.518Z,98669.63
2023-03-14T01:49:18.161Z,98670.03
2023-03-14T01:51:51.961Z,98668.78
2023-03-14T01:54:23.454Z,98665.53
2023-03-14T01:56:57.819Z,98673.50
2023-03-14T01:59:28.021Z,98666.34
2023-03-14T02:01:57.413Z,98662.88
2023-03-14T02:04:32.167Z,98649.97
2023-03-14T02:07:05.010Z,98638.53
2023-03-14T02:09:33.045Z,98646.53
2023-03-14T02:12:01.611Z,98639.97
2023-03-14T02:14:33.661Z,98633.66
2023-03-14T02:17:03.279Z,98626.69
2023-03-14T02:19:49.810Z,98613.38
2023-03-14T02:22:18.471Z,98620.94
2023-03-14T02:24:53.388Z,98613.59
2023-03-14T02:27:22.948Z,98610.94
2023-03-14T02:29:54.697Z,98620.56
2023-03-14T02:32:24.409Z,98610.75
2023-03-14T02:34:56.290Z,98603.16
2023-03-14T02:37:29.562Z,98588.44
2023-03-14T02:39:57.411Z,98592.97
2023-03-14T02:42:29.279Z,98578.44
2023-03-14T02:45:03.143Z,98593.16
2023-03-14T02:47:32.644Z,98593.56
2023-03-14T02:50:07.016Z,98588.88
2023-03-14T02:52:34.733Z,98574.56
2023-03-14T02:55:02.642Z,98576.59
2023-03-14T02:57:31.936Z,98587.41
2023-03-14T03:00:00.729Z,98582.72
2023-03-14T03:02:28.768Z,98572.69
2023-03-14T03:04:56.490Z,98568.84
2023-03-14T03:07:24.293Z,98561.66
2023-03-14T03:09:51.953Z,98556.34
2023-03-14T03:12:19.664Z,98561.06
2023-03-14T03:14:48.670Z,98567.00
2023-03-14T03:17:16.497Z,98553.47
2023-03-14T03:19:44.929Z,98547.16
2023-03-14T03:22:12.648Z,98546.31
2023-03-14T03:24:40.338Z,98534.47
2023-03-14T03:27:08.340Z,98531.63
2023-03-14T03:29:36.056Z,98527.13
2023-03-14T03:32:05.084Z,98514.66
2023-03-14T03:34:32.761Z,98498.09
2023-03-14T03:37:00.852Z,98497.09
2023-03-14T03:39:28.579Z,98505.63
2023-03-14T03:41:56.445Z,98509.13
2023-03-14T03:44:24.087Z,98498.09
2023-03-14T03:46:51.765Z,98492.16
2023-03-14T03:49:20.786Z,98498.91
2023-03-14T03:51:48.470Z,98491.31
2023-03-14T03:54:16.183Z,98501.56
2023-03-14T03:56:43.881Z,98501.97
2023-03-14T03:59:11.549Z,98489.28
2023-03-14T04:01:39.246Z,98495.22
2023-03-14T04:04:07.377Z,98497.91
2023-03-14T04:06:36.875Z,98504.03
2023-03-14T04:09:06.261Z,98500.75
2023-03-14T04:11:34.031Z,98494.81
2023-03-14T04:14:01.717Z,98495.44
2023-03-14T04:16:29.460Z,98494.22
2023-03-14T04:18:57.234Z,98491.34
2023-03-14T04:21:25.373Z,98496.47
2023-03-14T04:23:54.476Z,98490.56
2023-03-14T04:26:22.358Z,98490.94
2023-03-14T04:28:50.069Z,98492.97
2023-03-14T04:31:19.583Z,98493.81
2023-03-14T04:33:47.734Z,98494.66
2023-03-14T04:36:16.117Z,98502.63
2023-03-14T04:38:43.782Z,98492.19
2023-03-14T04:41:13.049Z,98506.50
2023-03-14T04:43:40.758Z,98505.66
2023-03-14T04:46:08.556Z,98497.28
2023-03-14T04:48:36.246Z,98494.22
2023-03-14T04:51:04.058Z,98497.47
2023-03-14T04:53:33.044Z,98479.69
2023-03-14T04:56:00.967Z,98460.47
2023-03-14T04:58:29.990Z,98464.97
2023-03-14T05:00:57.852Z,98453.31
2023-03-14T05:03:25.660Z,98465.97
2023-03-14T05:05:53.349Z,98473.31
2023-03-14T05:08:20.928Z,98466.59
2023-03-14T05:10:54.399Z,98463.94
2023-03-14T05:13:22.027Z,98478.63
2023-03-14T05:15:51.958Z,98452.88
2023-03-14T05:18:19.808Z,98458.38
2023-03-14T05:20:47.534Z,98468.84
2023-03-14T05:23:15.302Z,98461.50
2023-03-14T05:25:45.426Z,98456.19
2023-03-14T05:28:13.059Z,98442.28
2023-03-14T05:30:40.804Z,98451.25
2023-03-14T05:33:09.841Z,98452.47
2023-03-14T05:35:37.544Z,98459.44
2023-03-14T05:38:05.237Z,98456.16
2023-03-14T05:40:33.139Z,98445.34
2023-03-14T05:43:00.914Z,98451.69
2023-03-14T05:45:28.825Z,98450.84
2023-03-14T05:47:56.546Z,98465.13
2023-03-14T05:50:25.556Z,98461.88
2023-03-14T05:52:53.206Z,98451.22
2023-03-14T05:55:21.112Z,98444.06
2023-03-14T05:57:48.835Z,98445.50
2023-03-14T06:00:17.228Z,98442.84
2023-03-14T06:02:44.940Z,98446.13
2023-03-14T06:05:13.253Z,98442.81
2023-03-14T06:07:42.350Z,98444.66
2023-03-14T06:10:11.295Z,98450.81
2023-03-14T06:12:39.001Z,98449.78
2023-03-14T06:15:08.887Z,98457.75
2023-03-14T06:17:36.575Z,98451.41
2023-03-14T06:20:04.570Z,98470.00
2023-03-14T06:22:32.291Z,98469.59
2023-03-14T06:25:01.354Z,98470.19
2023-03-14T06:27:29.175Z,98463.00
2023-03-14T06:29:56.981Z,98468.72
2023-03-14T06:32:25.539Z,98473.69
2023-03-14T06:34:54.078Z,98468.56
2023-03-14T06:37:21.829Z,98473.66
2023-03-14T06:39:49.564Z,98454.84
2023-03-14T06:42:18.561Z,98451.00
2023-03-14T06:44:46.228Z,98449.13
2023-03-14T06:47:13.952Z,98449.53
2023-03-14T06:49:41.527Z,98449.53
2023-03-14T06:52:09.154Z,98455.69
2023-03-14T06:54:36.844Z,98448.31
2023-03-14T06:57:04.554Z,98442.75
2023-03-14T06:59:33.532Z,98438.66
2023-03-14T07:02:01.259Z,98448.72
2023-03-14T07:04:29.016Z,98447.09
2023-03-14T07:06:56.657Z,98442.53
2023-03-14T07:09:24.507Z,98426.97
2023-03-14T07:11:52.197Z,98439.03
2023-03-14T07:14:20.875Z,98440.81
2023-03-14T07:16:50.598Z,98453.34
2023-03-14T07:19:18.366Z,98448.69
2023-03-14T07:21:46.084Z,98455.59
2023-03-14T07:24:14.038Z,98460.06
2023-03-14T07:26:41.909Z,98461.66
2023-03-14T07:29:09.650Z,98464.94
2023-03-14T07:31:37.332Z,98463.28
2023-03-14T07:34:06.372Z,98462.78
2023-03-14T07:36:34.350Z,98466.53
2023-03-14T07:39:02.127Z,98471.94
2023-03-14T07:41:29.831Z,98465.59
2023-03-14T07:43:57.506Z,98465.31
2023-03-14T07:46:25.197Z,98468.19
2023-03-14T07:48:52.843Z,98473.19
2023-03-14T07:51:21.837Z,98462.38
2023-03-14T07:53:49.573Z,98465.16
2023-03-14T07:56:17.319Z,98466.34
2023-03-14T07:58:44.921Z,98460.69
2023-03-14T08:01:12.680Z,98461.69
2023-03-14T08:03:40.505Z,98456.91
2023-03-14T08:06:08.968Z,98470.44
2023-03-14T08:08:38.126Z,98466.25
2023-03-14T08:11:09.643Z,98461.00
2023-03-14T08:13:38.355Z,98467.88
2023-03-14T08:16:06.943Z,98464.22
2023-03-14T08:18:35.002Z,98470.53
2023-03-14T08:21:02.723Z,98470.06
2023-03-14T08:23:30.417Z,98477.88
2023-03-14T08:25:59.527Z,98478.72
2023-03-14T08:28:31.379Z,98477.50
2023-03-14T08:30:59.500Z,98482.13
2023-03-14T08:33:27.927Z,98492.44
2023-03-14T08:35:55.868Z,98486.78
2023-03-14T08:38:23.968Z,98482.56
2023-03-14T08:40:59.680Z,98481.75
2023-03-14T08:43:27.393Z,98493.19
2023-03-14T08:45:55.744Z,98496.22
2023-03-14T08:48:23.509Z,98489.72
2023-03-14T08:50:51.261Z,98500.97
2023-03-14T08:53:19.483Z,98497.31
2023-03-14T08:55:47.299Z,98484.00
2023-03-14T08:58:16.338Z,98499.25
2023-03-14T09:00:44.040Z,98497.81
2023-03-14T09:03:11.817Z,98482.41
2023-03-14T09:05:39.749Z,98477.41
2023-03-14T09:08:07.814Z,98473.56
2023-03-14T09:10:35.488Z,98474.59
2023-03-14T09:13:03.160Z,98484.69
2023-03-14T09:15:32.429Z,98466.31
2023-03-14T09:18:00.183Z,98479.41
2023-03-14T09:20:28.268Z,98472.78
2023-03-14T09:22:56.118Z,98484.78
2023-03-14T09:25:23.926Z,98471.56
2023-03-14T09:27:51.695Z,98483.94
2023-03-14T09:30:19.495Z,98468.44
2023-03-14T09:32:48.840Z,98477.28
2023-03-14T09:35:16.613Z,98466.63
2023-03-14T09:37:44.400Z,98480.38
2023-03-14T09:40:15.538Z,98476.03
2023-03-14T09:42:43.402Z,98478.19
2023-03-14T09:45:18.363Z,98484.69
2023-03-14T09:47:58.647Z,98485.03
2023-03-14T09:50:28.839Z,98492.41
2023-03-14T09:53:01.469Z,98492.97
2023-03-14T09:55:30.579Z,98488.22
2023-03-14T09:58:02.047Z,98486.78
2023-03-14T10:00:32.151Z,98488.75
2023-03-14T10:03:20.294Z,98486.44
2023-03-14T10:05:48.002Z,98486.22
2023-03-14T10:08:16.204Z,98481.78
2023-03-14T10:10:44.246Z,98479.63
2023-03-14T10:13:17.431Z,98487.50
2023-03-14T10:15:50.839Z,98482.78
2023-03-14T10:18:20.300Z,98485.91
2023-03-14T10:20:49.789Z,98481.47
2023-03-14T10:23:30.149Z,98490.09
2023-03-14T10:26:05.432Z,98493.84
2023-03-14T10:28:35.445Z,98496.84
2023-03-14T10:31:03.337Z,98492.13
2023-03-14T10:33:34.562Z,98496.56
2023-03-14T10:36:04.651Z,98485.38
2023-03-14T10:38:34.203Z,98480.97
2023-03-14T10:41:02.880Z,98484.13
2023-03-14T10:43:35.886Z,98490.53
2023-03-14T10:46:10.654Z,98492.25
2023-03-14T10:48:42.993Z,98510.00
2023-03-14T10:51:12.693Z,98503.09
2023-03-14T10:53:45.368Z,98502.88
2023-03-14T10:56:17.842Z,98502.38
2023-03-14T10:58:47.330Z,98507.69
2023-03-14T11:01:34.054Z,98508.41
2023-03-14T11:04:11.282Z,98509.56
2023-03-14T11:06:46.658Z,98514.09
2023-03-14T11:09:22.756Z,98527.19
2023-03-14T11:11:50.422Z,98523.72
2023-03-14T11:14:30.532Z,98529.41
2023-03-14T11:17:04.237Z,98532.47
2023-03-14T11:19:48.062Z,98541.69
2023-03-14T11:22:23.870Z,98530.63
2023-03-14T11:25:08.324Z,98546.41
2023-03-14T11:27:44.418Z,98545.13
2023-03-14T11:30:22.597Z,98557.59
2023-03-14T11:32:59.963Z,98556.13
2023-03-14T11:35:34.756Z,98571.28
2023-03-14T11:38:13.494Z,98570.81
2023-03-14T11:40:42.442Z,98575.38
2023-03-14T11:43:17.305Z,98589.66
2023-03-14T11:45:45.866Z,98583.72
2023-03-14T11:48:24.202Z,98599.66
2023-03-14T11:50:57.348Z,98623.00
2023-03-14T11:53:36.978Z,98614.19
2023-03-14T11:56:05.278Z,98633.69
2023-03-14T11:58:37.155Z,98650.41
2023-03-14T12:01:11.221Z,98657.25
2023-03-14T12:03:45.083Z,98656.28
2023-03-14T12:06:22.604Z,98666.97
2023-03-14T12:08:52.732Z,98693.88
2023-03-14T12:11:27.646Z,98722.16
2023-03-14T12:13:55.946Z,98738.59
2023-03-14T12:16:41.491Z,98739.19
2023-03-14T12:19:33.315Z,98753.09
2023-03-14T12:22:09.646Z,98758.19
2023-03-14T12:24:39.442Z,98781.72
2023-03-14T12:27:10.212Z,98788.91
2023-03-14T12:30:04.679Z,98792.56
2023-03-14T12:32:33.537Z,98817.22
2023-03-14T12:35:29.830Z,98820.84
2023-03-14T12:38:01.288Z,98824.09
2023-03-14T12:40:33.609Z,98840.66
2023-03-14T12:43:04.211Z,98851.63
2023-03-14T12:45:33.458Z,98867.63
2023-03-14T12:48:11.308Z,98853.72
2023-03-14T12:50:45.377Z,98877.38
2023-03-14T12:54:00.300Z,98894.19
2023-03-14T12:56:53.355Z,98886.63
2023-03-14T12:59:32.823Z,98900.13
2023-03-14T13:02:04.725Z,98901.38
2023-03-14T13:04:40.039Z,98914.66
2023-03-14T13:07:13.785Z,98914.25
2023-03-14T13:10:04.425Z,98906.28
2023-03-14T13:12:40.825Z,98937.00
2023-03-14T13:15:22.124Z,98942.75
2023-03-14T13:17:51.449Z,98948.03
2023-03-14T13:20:25.378Z,98966.84
2023-03-14T13:22:53.606Z,98965.97
2023-03-14T13:25:23.908Z,98982.75
2023-03-14T13:27:56.784Z,98987.25
2023-03-14T13:30:27.783Z,98999.63
2023-03-14T13:32:56.808Z,99011.88
2023-03-14T13:35:29.300Z,99021.09
2023-03-14T13:38:10.684Z,99043.22
2023-03-14T13:40:41.028Z,99051.94
2023-03-14T13:43:17.121Z,99053.88
2023-03-14T13:45:52.064Z,99065.09
2023-03-14T13:48:20.998Z,99071.13
2023-03-14T13:50:55.078Z,99068.91
2023-03-14T13:53:23.215Z,99077.59
2023-03-14T13:55:53.401Z,99078.72
2023-03-14T13:58:27.875Z,99089.66
2023-03-14T14:00:58.882Z,99091.03
2023-03-14T14:03:26.981Z,99086.91
2023-03-14T14:05:57.582Z,99096.41
2023-03-14T14:08:25.900Z,99088.88
2023-03-14T14:10:59.757Z,99095.47
2023-03-14T14:13:29.440Z,99113.72
2023-03-14T14:15:58.168Z,99117.63
2023-03-14T14:18:29.724Z,99112.44
2023-03-14T14:20:58.244Z,99122.50
2023-03-14T14:23:29.862Z,99135.44
2023-03-14T14:26:00.487Z,99140.16
2023-03-14T14:28:32.734Z,99152.03
2023-03-14T14:31:18.632Z,99156.72
2023-03-14T14:33:47.741Z,99152.47
2023-03-14T14:36:21.879Z,99163.94
2023-03-14T14:38:59.536Z,99164.97
2023-03-14T14:41:35.713Z,99179.72
2023-03-14T14:44:05.816Z,99195.25
2023-03-14T14:46:36.185Z,99187.50
2023-03-14T14:49:08.349Z,99193.47
2023-03-14T14:51:43.117Z,99213.38
2023-03-14T14:54:17.221Z,99215.03
2023-03-14T14:56:52.025Z,99223.66
2023-03-14T14:59:24.261Z,99230.28
2023-03-14T15:01:56.462Z,99231.94
2023-03-14T15:04:24.228Z,99260.25
2023-03-14T15:06:53.493Z,99260.28
2023-03-14T15:09:22.040Z,99265.19
2023-03-14T15:11:51.941Z,99270.94
2023-03-14T15:14:19.640Z,99277.09
2023-03-14T15:16:47.484Z,99268.06
2023-03-14T15:19:27.066Z,99272.78
2023-03-14T15:21:55.309Z,99269.09
2023-03-14T15:24:23.437Z,99286.75
2023-03-14T15:26:53.054Z,99276.50
2023-03-14T15:29:20.752Z,99283.88
2023-03-14T15:31:48.565Z,99286.16
2023-03-14T15:34:17.601Z,99293.09
2023-03-14T15:36:45.414Z,99296.38
2023-03-14T15:39:13.549Z,99296.38
2023-03-14T15:41:41.308Z,99299.44
2023-03-14T15:44:10.552Z,99302.06
2023-03-14T15:46:38.378Z,99302.63
2023-03-14T15:49:06.355Z,99307.16
2023-03-14T15:51:36.809Z,99310.63
2023-03-14T15:54:04.648Z,99313.88
2023-03-14T15:56:32.659Z,99307.50
2023-03-14T15:59:01.005Z,99307.44
2023-03-14T16:01:30.199Z,99326.09
2023-03-14T16:03:58.048Z,99331.19
2023-03-14T16:06:25.952Z,99325.44
2023-03-14T16:08:53.716Z,99336.06
2023-03-14T16:11:22.781Z,99331.94
2023-03-14T16:13:50.671Z,99338.06
2023-03-14T16:16:18.459Z,99331.25
2023-03-14T16:18:48.070Z,99333.66
2023-03-14T16:21:17.553Z,99328.09
2023-03-14T16:23:45.790Z,99344.88
2023-03-14T16:26:16.587Z,99356.28
2023-03-14T16:28:45.177Z,99360.59
2023-03-14T16:31:14.621Z,99363.03
2023-03-14T16:33:42.490Z,99363.81
2023-03-14T16:36:13.510Z,99379.97
2023-03-14T16:38:42.977Z,99378.50
2023-03-14T16:41:13.203Z,99382.53
2023-03-14T16:43:41.513Z,99393.72
2023-03-14T16:46:12.848Z,99395.09
2023-03-14T16:48:40.705Z,99396.66
2023-03-14T16:51:08.316Z,99412.38
2023-03-14T16:53:37.600Z,99417.09
2023-03-14T16:56:05.656Z,99423.97
2023-03-14T16:58:33.336Z,99426.38
2023-03-14T17:01:10.548Z,99429.16
2023-03-14T17:03:41.830Z,99429.69
2023-03-14T17:06:12.577Z,99432.94
2023-03-14T17:08:42.294Z,99434.75
2023-03-14T17:11:10.931Z,99445.22
2023-03-14T17:13:39.853Z,99454.66
2023-03-14T17:16:08.720Z,99460.97
2023-03-14T17:18:37.719Z,99467.94
2023-03-14T17:21:06.603Z,99478.50
2023-03-14T17:23:35.542Z,99483.06
2023-03-14T17:26:04.973Z,99492.47
2023-03-14T17:28:32.748Z,99496.31
2023-03-14T17:31:08.124Z,99509.16
2023-03-14T17:33:36.841Z,99513.47
2023-03-14T17:36:05.291Z,99535.38
2023-03-14T17:38:33.437Z,99536.75
2023-03-14T17:41:01.256Z,99542.25
2023-03-14T17:43:31.768Z,99543.81
2023-03-14T17:46:00.434Z,99559.66
2023-03-14T17:48:29.665Z,99566.88
2023-03-14T17:51:00.145Z,99574.53
2023-03-14T17:53:29.684Z,99587.56
2023-03-14T17:55:57.940Z,99588.91
2023-03-14T17:58:25.948Z,99584.00
2023-03-14T18:00:55.249Z,99594.81
2023-03-14T18:03:23.501Z,99605.63
2023-03-14T18:05:51.292Z,99611.28
2023-03-14T18:08:19.517Z,99615.97
2023-03-14T18:10:47.394Z,99624.81
2023-03-14T18:13:15.340Z,99636.31
2023-03-14T18:15:43.283Z,99640.34
2023-03-14T18:18:12.359Z,99650.97
2023-03-14T18:20:40.087Z,99653.44
2023-03-14T18:23:09.220Z,99661.56
2023-03-14T18:25:37.048Z,99680.84
2023-03-14T18:28:05.120Z,99688.69
2023-03-14T18:30:37.714Z,99692.84
2023-03-14T18:33:05.606Z,99703.84
2023-03-14T18:35:35.045Z,99700.19
2023-03-14T18:38:02.966Z,99703.84
2023-03-14T18:40:30.696Z,99704.50
2023-03-14T18:42:58.357Z,99719.25
2023-03-14T18:45:27.229Z,99733.06
2023-03-14T18:47:55.152Z,99734.06
2023-03-14T18:50:22.944Z,99747.16
2023-03-14T18:52:52.094Z,99760.41
2023-03-14T18:55:19.913Z,99761.59
2023-03-14T18:57:47.847Z,99777.16
2023-03-14T19:00:16.754Z,99788.41
2023-03-14T19:02:44.533Z,99796.00
2023-03-14T19:05:13.358Z,99794.34
2023-03-14T19:07:42.501Z,99793.66
2023-03-14T19:10:13.140Z,99797.31
2023-03-14T19:12:40.820Z,99805.56
2023-03-14T19:15:11.898Z,99804.34
2023-03-14T19:17:39.788Z,99806.13
2023-03-14T19:20:09.235Z,99806.28
2023-03-14T19:22:37.015Z,99822.63
2023-03-14T19:25:06.441Z,99830.72
2023-03-14T19:27:35.964Z,99848.28
2023-03-14T19:30:04.087Z,99851.28
2023-03-14T19:32:32.266Z,99847.97
2023-03-14T19:34:59.993Z,99856.19
2023-03-14T19:37:27.751Z,99857.31
2023-03-14T19:39:58.033Z,99866.78
2023-03-14T19:42:25.708Z,99871.53
2023-03-14T19:44:56.474Z,99878.00
2023-03-14T19:47:24.207Z,99891.09
2023-03-14T19:49:51.885Z,99907.25
2023-03-14T19:52:19.725Z,99911.28
2023-03-14T19:54:47.743Z,99932.34
2023-03-14T19:57:15.506Z,99938.09
2023-03-14T19:59:43.250Z,99948.28
2023-03-14T20:02:15.720Z,99960.69
2023-03-14T20:04:44.340Z,99964.84
2023-03-14T20:07:14.284Z,99972.09
2023-03-14T20:09:42.400Z,99975.06
2023-03-14T20:12:10.770Z,99978.19
2023-03-14T20:14:38.733Z,99983.38
2023-03-14T20:17:08.355Z,99990.22
2023-03-14T20:19:38.153Z,99995.81
2023-03-14T20:22:05.947Z,100006.81
2023-03-14T20:24:34.197Z,100005.00
2023-03-14T20:27:02.228Z,100000.00
2023-03-14T20:29:29.928Z,100011.03
2023-03-14T20:31:57.718Z,100022.84
2023-03-14T20:34:25.994Z,100029.09
2023-03-14T20:36:55.384Z,100035.22
2023-03-14T20:39:24.591Z,100033.16
2023-03-14T20:41:53.579Z,100035.81
2023-03-14T20:44:21.445Z,100039.28
2023-03-14T20:46:49.650Z,100034.00
2023-03-14T20:49:17.509Z,100032.78
2023-03-14T20:51:45.572Z,100022.09
2023-03-14T20:54:15.083Z,100020.44
2023-03-14T20:56:46.194Z,100025.00
2023-03-14T20:59:14.103Z,100031.53
2023-03-14T21:01:41.937Z,100046.13
2023-03-14T21:04:09.840Z,100049.03
2023-03-14T21:06:37.804Z,100040.59
2023-03-14T21:09:05.782Z,100044.06
2023-03-14T21:11:36.462Z,100041.56
2023-03-14T21:14:04.370Z,100051.53
2023-03-14T21:16:32.386Z,100064.03
2023-03-14T21:19:00.935Z,100073.19
2023-03-14T21:21:31.929Z,100076.28
2023-03-14T21:24:01.268Z,100088.50
2023-03-14T21:26:28.987Z,100075.16
2023-03-14T21:28:58.110Z,100077.13
2023-03-14T21:31:27.928Z,100059.91
2023-03-14T21:33:56.204Z,100063.78
2023-03-14T21:36:23.961Z,100063.66
2023-03-14T21:38:53.183Z,100064.75
2023-03-14T21:41:20.869Z,100071.84
2023-03-14T21:43:48.925Z,100083.78
2023-03-14T21:46:17.962Z,100090.75
2023-03-14T21:48:46.543Z,100090.19
2023-03-14T21:51:14.603Z,100108.41
2023-03-14T21:53:42.298Z,100109.06
2023-03-14T21:56:10.001Z,100116.59
2023-03-14T21:58:37.816Z,100121.31
2023-03-14T22:01:07.516Z,100131.03
2023-03-14T22:03:36.853Z,100127.16
2023-03-14T22:06:04.887Z,100128.53
2023-03-14T22:08:32.612Z,100130.63
2023-03-14T22:11:00.432Z,100124.91
2023-03-14T22:13:28.064Z,100135.66
2023-03-14T22:15:55.836Z,100142.75
2023-03-14T22:18:25.261Z,100147.88
2023-03-14T22:20:54.428Z,100150.94
2023-03-14T22:23:22.305Z,100153.56
2023-03-14T22:25:50.434Z,100164.97
2023-03-14T22:28:19.617Z,100172.47
2023-03-14T22:30:48.072Z,100178.03
2023-03-14T22:33:15.821Z,100174.28
2023-03-14T22:35:43.453Z,100173.44
2023-03-14T22:38:12.619Z,100185.50
2023-03-14T22:40:40.296Z,100190.78
2023-03-14T22:43:08.089Z,100190.00
2023-03-14T22:45:36.206Z,100193.88
2023-03-14T22:48:03.974Z,100202.47
2023-03-14T22:50:31.636Z,100203.03
2023-03-14T22:52:59.347Z,100212.47
2023-03-14T22:55:28.333Z,100219.84
2023-03-14T22:57:57.617Z,100218.84
2023-03-14T23:00:26.967Z,100220.13
2023-03-14T23:02:55.084Z,100220.25
2023-03-14T23:05:23.261Z,100218.56
2023-03-14T23:07:51.155Z,100216.06
2023-03-14T23:10:18.881Z,100222.88
2023-03-14T23:12:47.998Z,100230.81
2023-03-14T23:15:16.840Z,100240.78
2023-03-14T23:17:45.440Z,100249.00
2023-03-14T23:20:14.027Z,100248.88
2023-03-14T23:22:41.754Z,100254.16
2023-03-14T23:25:10.451Z,100252.47
2023-03-14T23:27:38.130Z,100255.94
2023-03-14T23:30:08.408Z,100261.75
2023-03-14T23:32:36.157Z,100264.25
2023-03-14T23:35:03.915Z,100275.66
2023-03-14T23:37:32.016Z,100279.91
2023-03-14T23:39:59.633Z,100275.47
2023-03-14T23:42:27.272Z,100284.19
2023-03-14T23:44:55.147Z,100295.78
2023-03-14T23:47:24.116Z,100294.41
2023-03-14T23:49:51.813Z,100301.34
2023-03-14T23:52:19.729Z,100299.50
2023-03-14T23:54:47.528Z,100299.03
2023-03-14T23:57:15.303Z,100306.41
2023-03-14T23:59:43.069Z,100315.41
